sensor_id;sensor_type;location;lat;lon;timestamp;P1;durP1;ratioP1;P2;durP2;ratioP2
61358;SDS011;47228;46.762;23.598;2022-10-16T00:01:40;24.20;;;14.80;;
61358;SDS011;47228;46.762;23.598;2022-10-16T00:04:08;25.50;;;16.20;;
61358;SDS011;47228;46.762;23.598;2022-10-16T00:06:37;23.40;;;14.80;;
61358;SDS011;47228;46.762;23.598;2022-10-16T00:09:06;23.60;;;14.20;;
61358;SDS011;47228;46.762;23.598;2022-10-16T00:11:35;21.30;;;14.00;;
61358;SDS011;47228;46.762;23.598;2022-10-16T00:14:06;23.40;;;14.90;;
61358;SDS011;47228;46.762;23.598;2022-10-16T00:16:36;20.80;;;14.70;;
61358;SDS011;47228;46.762;23.598;2022-10-16T00:19:04;23.70;;;14.60;;
61358;SDS011;47228;46.762;23.598;2022-10-16T00:21:33;23.30;;;14.60;;
61358;SDS011;47228;46.762;23.598;2022-10-16T00:24:06;21.60;;;15.10;;
61358;SDS011;47228;46.762;23.598;2022-10-16T00:26:36;24.90;;;15.60;;
61358;SDS011;47228;46.762;23.598;2022-10-16T00:29:06;22.50;;;14.40;;
61358;SDS011;47228;46.762;23.598;2022-10-16T00:31:34;22.10;;;14.00;;
61358;SDS011;47228;46.762;23.598;2022-10-16T00:34:02;22.20;;;13.80;;
61358;SDS011;47228;46.762;23.598;2022-10-16T00:36:30;19.50;;;13.20;;
61358;SDS011;47228;46.762;23.598;2022-10-16T00:38:59;20.20;;;13.10;;
61358;SDS011;47228;46.762;23.598;2022-10-16T00:41:32;19.80;;;13.50;;
61358;SDS011;47228;46.762;23.598;2022-10-16T00:44:03;21.50;;;13.70;;
61358;SDS011;47228;46.762;23.598;2022-10-16T00:46:51;18.60;;;12.60;;
61358;SDS011;47228;46.762;23.598;2022-10-16T00:49:19;18.80;;;12.60;;
61358;SDS011;47228;46.762;23.598;2022-10-16T00:51:52;21.50;;;12.90;;
61358;SDS011;47228;46.762;23.598;2022-10-16T00:54:25;20.20;;;13.80;;
61358;SDS011;47228;46.762;23.598;2022-10-16T00:56:55;18.50;;;12.20;;
61358;SDS011;47228;46.762;23.598;2022-10-16T00:59:28;19.30;;;12.90;;
61358;SDS011;47228;46.762;23.598;2022-10-16T01:02:08;17.10;;;11.70;;
61358;SDS011;47228;46.762;23.598;2022-10-16T01:04:39;20.70;;;12.10;;
61358;SDS011;47228;46.762;23.598;2022-10-16T01:07:12;16.60;;;11.50;;
61358;SDS011;47228;46.762;23.598;2022-10-16T01:15:30;19.00;;;13.50;;
61358;SDS011;47228;46.762;23.598;2022-10-16T01:18:23;16.40;;;11.80;;
61358;SDS011;47228;46.762;23.598;2022-10-16T01:20:56;21.00;;;12.60;;
61358;SDS011;47228;46.762;23.598;2022-10-16T01:26:40;20.10;;;11.40;;
61358;SDS011;47228;46.762;23.598;2022-10-16T01:29:23;20.90;;;12.30;;
61358;SDS011;47228;46.762;23.598;2022-10-16T01:32:15;19.90;;;13.00;;
61358;SDS011;47228;46.762;23.598;2022-10-16T01:34:52;18.70;;;13.30;;
61358;SDS011;47228;46.762;23.598;2022-10-16T01:37:28;20.80;;;13.00;;
61358;SDS011;47228;46.762;23.598;2022-10-16T01:40:02;21.60;;;12.70;;
61358;SDS011;47228;46.762;23.598;2022-10-16T01:42:35;20.60;;;13.20;;
61358;SDS011;47228;46.762;23.598;2022-10-16T01:45:07;22.10;;;13.50;;
61358;SDS011;47228;46.762;23.598;2022-10-16T01:47:39;19.20;;;12.40;;
61358;SDS011;47228;46.762;23.598;2022-10-16T01:50:09;20.20;;;13.30;;
61358;SDS011;47228;46.762;23.598;2022-10-16T01:52:38;19.70;;;13.30;;
61358;SDS011;47228;46.762;23.598;2022-10-16T01:55:12;21.30;;;13.70;;
61358;SDS011;47228;46.762;23.598;2022-10-16T01:57:46;20.30;;;12.40;;
61358;SDS011;47228;46.762;23.598;2022-10-16T02:00:17;20.60;;;12.60;;
61358;SDS011;47228;46.762;23.598;2022-10-16T02:02:49;20.90;;;13.20;;
61358;SDS011;47228;46.762;23.598;2022-10-16T02:07:56;19.00;;;13.80;;
61358;SDS011;47228;46.762;23.598;2022-10-16T02:10:28;20.20;;;13.20;;
61358;SDS011;47228;46.762;23.598;2022-10-16T02:13:02;20.90;;;13.50;;
61358;SDS011;47228;46.762;23.598;2022-10-16T02:15:34;19.90;;;13.40;;
61358;SDS011;47228;46.762;23.598;2022-10-16T02:18:03;24.60;;;13.70;;
61358;SDS011;47228;46.762;23.598;2022-10-16T02:20:34;20.10;;;14.00;;
61358;SDS011;47228;46.762;23.598;2022-10-16T02:23:14;21.90;;;13.90;;
61358;SDS011;47228;46.762;23.598;2022-10-16T02:25:47;20.60;;;14.30;;
61358;SDS011;47228;46.762;23.598;2022-10-16T02:28:22;21.80;;;14.00;;
61358;SDS011;47228;46.762;23.598;2022-10-16T02:33:26;18.00;;;12.80;;
61358;SDS011;47228;46.762;23.598;2022-10-16T02:35:56;18.10;;;13.10;;
61358;SDS011;47228;46.762;23.598;2022-10-16T02:38:25;19.20;;;13.10;;
61358;SDS011;47228;46.762;23.598;2022-10-16T02:40:54;18.70;;;13.70;;
61358;SDS011;47228;46.762;23.598;2022-10-16T02:43:22;21.30;;;14.70;;
61358;SDS011;47228;46.762;23.598;2022-10-16T02:45:50;18.40;;;13.20;;
61358;SDS011;47228;46.762;23.598;2022-10-16T02:48:18;18.80;;;13.20;;
61358;SDS011;47228;46.762;23.598;2022-10-16T02:50:46;19.60;;;13.70;;
61358;SDS011;47228;46.762;23.598;2022-10-16T02:53:13;22.20;;;13.20;;
61358;SDS011;47228;46.762;23.598;2022-10-16T02:55:41;19.00;;;13.30;;
61358;SDS011;47228;46.762;23.598;2022-10-16T02:58:09;25.60;;;14.20;;
61358;SDS011;47228;46.762;23.598;2022-10-16T03:00:37;20.60;;;12.70;;
61358;SDS011;47228;46.762;23.598;2022-10-16T03:03:05;19.50;;;12.00;;
61358;SDS011;47228;46.762;23.598;2022-10-16T03:05:33;20.40;;;11.80;;
61358;SDS011;47228;46.762;23.598;2022-10-16T03:08:01;20.20;;;12.60;;
61358;SDS011;47228;46.762;23.598;2022-10-16T03:10:29;20.20;;;11.90;;
61358;SDS011;47228;46.762;23.598;2022-10-16T03:12:58;21.80;;;13.00;;
61358;SDS011;47228;46.762;23.598;2022-10-16T03:15:26;21.50;;;12.30;;
61358;SDS011;47228;46.762;23.598;2022-10-16T03:17:58;17.90;;;12.40;;
61358;SDS011;47228;46.762;23.598;2022-10-16T03:20:26;19.80;;;13.40;;
61358;SDS011;47228;46.762;23.598;2022-10-16T03:22:54;19.80;;;13.00;;
61358;SDS011;47228;46.762;23.598;2022-10-16T03:25:22;16.20;;;11.20;;
61358;SDS011;47228;46.762;23.598;2022-10-16T03:27:50;18.40;;;11.80;;
61358;SDS011;47228;46.762;23.598;2022-10-16T03:30:18;18.20;;;12.50;;
61358;SDS011;47228;46.762;23.598;2022-10-16T03:32:46;17.00;;;12.20;;
61358;SDS011;47228;46.762;23.598;2022-10-16T03:35:14;19.40;;;13.30;;
61358;SDS011;47228;46.762;23.598;2022-10-16T03:37:42;19.70;;;13.80;;
61358;SDS011;47228;46.762;23.598;2022-10-16T03:40:09;22.10;;;13.20;;
61358;SDS011;47228;46.762;23.598;2022-10-16T03:42:37;20.90;;;12.90;;
61358;SDS011;47228;46.762;23.598;2022-10-16T03:45:05;20.10;;;12.00;;
61358;SDS011;47228;46.762;23.598;2022-10-16T03:47:33;17.20;;;11.80;;
61358;SDS011;47228;46.762;23.598;2022-10-16T03:50:02;20.40;;;13.20;;
61358;SDS011;47228;46.762;23.598;2022-10-16T03:52:31;21.90;;;13.20;;
61358;SDS011;47228;46.762;23.598;2022-10-16T03:55:00;21.30;;;13.60;;
61358;SDS011;47228;46.762;23.598;2022-10-16T03:57:28;18.30;;;12.90;;
61358;SDS011;47228;46.762;23.598;2022-10-16T03:59:56;18.90;;;12.20;;
61358;SDS011;47228;46.762;23.598;2022-10-16T04:02:24;18.70;;;11.50;;
61358;SDS011;47228;46.762;23.598;2022-10-16T04:04:52;20.00;;;12.20;;
61358;SDS011;47228;46.762;23.598;2022-10-16T04:07:20;22.60;;;13.00;;
61358;SDS011;47228;46.762;23.598;2022-10-16T04:09:48;17.30;;;12.90;;
61358;SDS011;47228;46.762;23.598;2022-10-16T04:12:16;19.40;;;13.40;;
61358;SDS011;47228;46.762;23.598;2022-10-16T04:14:44;16.70;;;12.00;;
61358;SDS011;47228;46.762;23.598;2022-10-16T04:17:12;18.40;;;11.90;;
61358;SDS011;47228;46.762;23.598;2022-10-16T04:19:39;20.20;;;12.20;;
61358;SDS011;47228;46.762;23.598;2022-10-16T04:22:07;18.30;;;11.60;;
61358;SDS011;47228;46.762;23.598;2022-10-16T04:24:35;18.00;;;12.40;;
61358;SDS011;47228;46.762;23.598;2022-10-16T04:27:03;19.20;;;11.40;;
61358;SDS011;47228;46.762;23.598;2022-10-16T04:29:31;19.10;;;12.40;;
61358;SDS011;47228;46.762;23.598;2022-10-16T04:31:59;17.60;;;11.50;;
61358;SDS011;47228;46.762;23.598;2022-10-16T04:34:27;21.00;;;11.80;;
61358;SDS011;47228;46.762;23.598;2022-10-16T04:36:54;18.50;;;11.80;;
61358;SDS011;47228;46.762;23.598;2022-10-16T04:39:22;18.10;;;11.60;;
61358;SDS011;47228;46.762;23.598;2022-10-16T04:41:50;20.90;;;12.10;;
61358;SDS011;47228;46.762;23.598;2022-10-16T04:44:18;19.30;;;11.30;;
61358;SDS011;47228;46.762;23.598;2022-10-16T04:46:46;20.10;;;11.30;;
61358;SDS011;47228;46.762;23.598;2022-10-16T04:49:15;18.30;;;11.40;;
61358;SDS011;47228;46.762;23.598;2022-10-16T04:51:42;19.60;;;10.60;;
61358;SDS011;47228;46.762;23.598;2022-10-16T04:54:10;19.60;;;10.40;;
61358;SDS011;47228;46.762;23.598;2022-10-16T04:56:38;19.80;;;10.90;;
61358;SDS011;47228;46.762;23.598;2022-10-16T04:59:14;18.00;;;10.40;;
61358;SDS011;47228;46.762;23.598;2022-10-16T05:01:42;19.10;;;11.70;;
61358;SDS011;47228;46.762;23.598;2022-10-16T05:04:11;18.80;;;12.90;;
61358;SDS011;47228;46.762;23.598;2022-10-16T05:06:39;19.60;;;12.40;;
61358;SDS011;47228;46.762;23.598;2022-10-16T05:09:07;21.60;;;13.80;;
61358;SDS011;47228;46.762;23.598;2022-10-16T05:11:35;17.20;;;12.60;;
61358;SDS011;47228;46.762;23.598;2022-10-16T05:14:03;17.80;;;13.00;;
61358;SDS011;47228;46.762;23.598;2022-10-16T05:16:31;20.90;;;14.40;;
61358;SDS011;47228;46.762;23.598;2022-10-16T05:18:59;20.40;;;14.30;;
61358;SDS011;47228;46.762;23.598;2022-10-16T05:21:47;23.70;;;15.70;;
61358;SDS011;47228;46.762;23.598;2022-10-16T05:24:15;22.80;;;16.40;;
61358;SDS011;47228;46.762;23.598;2022-10-16T05:26:43;21.60;;;15.90;;
61358;SDS011;47228;46.762;23.598;2022-10-16T05:29:11;21.70;;;14.70;;
61358;SDS011;47228;46.762;23.598;2022-10-16T05:31:39;19.80;;;15.20;;
61358;SDS011;47228;46.762;23.598;2022-10-16T05:34:07;20.00;;;15.10;;
61358;SDS011;47228;46.762;23.598;2022-10-16T05:36:35;28.40;;;16.00;;
61358;SDS011;47228;46.762;23.598;2022-10-16T05:39:03;21.10;;;16.40;;
61358;SDS011;47228;46.762;23.598;2022-10-16T05:41:31;19.00;;;15.20;;
61358;SDS011;47228;46.762;23.598;2022-10-16T05:43:59;20.90;;;15.90;;
61358;SDS011;47228;46.762;23.598;2022-10-16T05:46:27;19.70;;;14.40;;
61358;SDS011;47228;46.762;23.598;2022-10-16T05:48:54;24.70;;;15.50;;
61358;SDS011;47228;46.762;23.598;2022-10-16T05:51:22;20.20;;;15.50;;
61358;SDS011;47228;46.762;23.598;2022-10-16T05:53:51;21.00;;;16.50;;
61358;SDS011;47228;46.762;23.598;2022-10-16T05:56:19;22.30;;;16.80;;
61358;SDS011;47228;46.762;23.598;2022-10-16T05:58:47;25.30;;;18.00;;
61358;SDS011;47228;46.762;23.598;2022-10-16T06:01:16;24.60;;;16.70;;
61358;SDS011;47228;46.762;23.598;2022-10-16T06:03:46;23.80;;;16.60;;
61358;SDS011;47228;46.762;23.598;2022-10-16T06:06:15;25.20;;;16.50;;
61358;SDS011;47228;46.762;23.598;2022-10-16T06:08:45;21.90;;;16.00;;
61358;SDS011;47228;46.762;23.598;2022-10-16T06:11:15;23.30;;;16.60;;
61358;SDS011;47228;46.762;23.598;2022-10-16T06:13:45;21.90;;;15.80;;
61358;SDS011;47228;46.762;23.598;2022-10-16T06:16:16;21.50;;;15.80;;
61358;SDS011;47228;46.762;23.598;2022-10-16T06:18:44;23.50;;;16.30;;
61358;SDS011;47228;46.762;23.598;2022-10-16T06:21:14;29.80;;;18.50;;
61358;SDS011;47228;46.762;23.598;2022-10-16T06:23:44;28.10;;;19.20;;
61358;SDS011;47228;46.762;23.598;2022-10-16T06:26:16;26.00;;;19.10;;
61358;SDS011;47228;46.762;23.598;2022-10-16T06:28:46;24.30;;;17.10;;
61358;SDS011;47228;46.762;23.598;2022-10-16T06:31:15;29.10;;;18.70;;
61358;SDS011;47228;46.762;23.598;2022-10-16T06:33:44;23.60;;;17.60;;
61358;SDS011;47228;46.762;23.598;2022-10-16T06:36:14;25.50;;;18.60;;
61358;SDS011;47228;46.762;23.598;2022-10-16T06:38:44;29.40;;;19.60;;
61358;SDS011;47228;46.762;23.598;2022-10-16T06:41:13;27.60;;;18.80;;
61358;SDS011;47228;46.762;23.598;2022-10-16T06:43:43;27.90;;;18.00;;
61358;SDS011;47228;46.762;23.598;2022-10-16T06:46:13;29.20;;;17.90;;
61358;SDS011;47228;46.762;23.598;2022-10-16T06:48:43;26.20;;;17.40;;
61358;SDS011;47228;46.762;23.598;2022-10-16T06:51:13;29.60;;;19.80;;
61358;SDS011;47228;46.762;23.598;2022-10-16T06:53:43;31.00;;;20.30;;
61358;SDS011;47228;46.762;23.598;2022-10-16T06:56:31;27.20;;;17.60;;
61358;SDS011;47228;46.762;23.598;2022-10-16T06:59:00;26.20;;;17.80;;
61358;SDS011;47228;46.762;23.598;2022-10-16T07:01:30;26.60;;;18.10;;
61358;SDS011;47228;46.762;23.598;2022-10-16T07:03:58;26.20;;;17.70;;
61358;SDS011;47228;46.762;23.598;2022-10-16T07:06:29;26.10;;;17.60;;
61358;SDS011;47228;46.762;23.598;2022-10-16T07:09:00;27.80;;;18.00;;
61358;SDS011;47228;46.762;23.598;2022-10-16T07:11:28;25.40;;;17.70;;
61358;SDS011;47228;46.762;23.598;2022-10-16T07:13:56;22.10;;;15.80;;
61358;SDS011;47228;46.762;23.598;2022-10-16T07:16:25;27.60;;;18.80;;
61358;SDS011;47228;46.762;23.598;2022-10-16T07:18:55;25.10;;;17.90;;
61358;SDS011;47228;46.762;23.598;2022-10-16T07:21:29;26.70;;;19.30;;
61358;SDS011;47228;46.762;23.598;2022-10-16T07:24:04;25.10;;;17.20;;
61358;SDS011;47228;46.762;23.598;2022-10-16T07:26:34;22.80;;;18.00;;
61358;SDS011;47228;46.762;23.598;2022-10-16T07:29:03;27.30;;;17.80;;
61358;SDS011;47228;46.762;23.598;2022-10-16T07:31:31;24.10;;;17.40;;
61358;SDS011;47228;46.762;23.598;2022-10-16T07:33:59;25.90;;;17.60;;
61358;SDS011;47228;46.762;23.598;2022-10-16T07:36:27;23.40;;;16.90;;
61358;SDS011;47228;46.762;23.598;2022-10-16T07:38:55;27.50;;;16.30;;
61358;SDS011;47228;46.762;23.598;2022-10-16T07:41:26;21.60;;;16.40;;
61358;SDS011;47228;46.762;23.598;2022-10-16T07:43:56;23.90;;;17.40;;
61358;SDS011;47228;46.762;23.598;2022-10-16T07:46:27;22.60;;;16.40;;
61358;SDS011;47228;46.762;23.598;2022-10-16T07:48:55;22.40;;;16.50;;
61358;SDS011;47228;46.762;23.598;2022-10-16T07:51:24;24.00;;;17.60;;
61358;SDS011;47228;46.762;23.598;2022-10-16T07:53:53;23.90;;;18.20;;
61358;SDS011;47228;46.762;23.598;2022-10-16T07:56:22;23.50;;;17.60;;
61358;SDS011;47228;46.762;23.598;2022-10-16T07:58:50;23.50;;;18.10;;
61358;SDS011;47228;46.762;23.598;2022-10-16T08:01:19;23.00;;;17.70;;
61358;SDS011;47228;46.762;23.598;2022-10-16T08:03:48;22.20;;;17.10;;
61358;SDS011;47228;46.762;23.598;2022-10-16T08:06:18;22.40;;;18.00;;
61358;SDS011;47228;46.762;23.598;2022-10-16T08:08:55;25.20;;;18.60;;
61358;SDS011;47228;46.762;23.598;2022-10-16T08:11:23;25.20;;;18.10;;
61358;SDS011;47228;46.762;23.598;2022-10-16T08:13:51;24.20;;;18.00;;
61358;SDS011;47228;46.762;23.598;2022-10-16T08:16:19;23.10;;;17.80;;
61358;SDS011;47228;46.762;23.598;2022-10-16T08:18:47;22.00;;;17.70;;
61358;SDS011;47228;46.762;23.598;2022-10-16T08:21:16;21.20;;;17.80;;
61358;SDS011;47228;46.762;23.598;2022-10-16T08:23:48;23.70;;;19.80;;
61358;SDS011;47228;46.762;23.598;2022-10-16T08:26:25;26.50;;;19.40;;
61358;SDS011;47228;46.762;23.598;2022-10-16T08:28:54;27.80;;;21.40;;
61358;SDS011;47228;46.762;23.598;2022-10-16T08:31:23;27.10;;;20.60;;
61358;SDS011;47228;46.762;23.598;2022-10-16T08:33:51;26.30;;;19.20;;
61358;SDS011;47228;46.762;23.598;2022-10-16T08:36:20;25.50;;;19.50;;
61358;SDS011;47228;46.762;23.598;2022-10-16T08:38:48;26.50;;;19.10;;
61358;SDS011;47228;46.762;23.598;2022-10-16T08:49:33;22.60;;;18.00;;
61358;SDS011;47228;46.762;23.598;2022-10-16T08:52:02;24.80;;;17.70;;
61358;SDS011;47228;46.762;23.598;2022-10-16T08:54:37;28.00;;;18.70;;
61358;SDS011;47228;46.762;23.598;2022-10-16T08:57:16;31.80;;;20.20;;
61358;SDS011;47228;46.762;23.598;2022-10-16T08:59:54;29.30;;;19.60;;
61358;SDS011;47228;46.762;23.598;2022-10-16T09:02:32;30.30;;;20.90;;
61358;SDS011;47228;46.762;23.598;2022-10-16T09:05:22;26.10;;;18.30;;
61358;SDS011;47228;46.762;23.598;2022-10-16T09:13:26;39.10;;;24.70;;
61358;SDS011;47228;46.762;23.598;2022-10-16T09:18:47;37.50;;;25.60;;
61358;SDS011;47228;46.762;23.598;2022-10-16T09:24:21;41.60;;;25.60;;
61358;SDS011;47228;46.762;23.598;2022-10-16T09:26:55;36.20;;;25.20;;
61358;SDS011;47228;46.762;23.598;2022-10-16T09:29:23;38.10;;;25.70;;
61358;SDS011;47228;46.762;23.598;2022-10-16T09:31:53;35.70;;;24.50;;
61358;SDS011;47228;46.762;23.598;2022-10-16T09:37:04;35.10;;;23.70;;
61358;SDS011;47228;46.762;23.598;2022-10-16T09:39:50;35.40;;;24.00;;
61358;SDS011;47228;46.762;23.598;2022-10-16T09:42:21;35.90;;;23.90;;
61358;SDS011;47228;46.762;23.598;2022-10-16T09:44:55;35.90;;;24.00;;
61358;SDS011;47228;46.762;23.598;2022-10-16T09:47:25;35.90;;;24.40;;
61358;SDS011;47228;46.762;23.598;2022-10-16T09:49:56;33.00;;;23.40;;
61358;SDS011;47228;46.762;23.598;2022-10-16T09:52:29;35.40;;;24.80;;
61358;SDS011;47228;46.762;23.598;2022-10-16T09:55:02;36.00;;;24.80;;
61358;SDS011;47228;46.762;23.598;2022-10-16T09:57:51;35.10;;;23.10;;
61358;SDS011;47228;46.762;23.598;2022-10-16T10:00:20;30.50;;;22.90;;
61358;SDS011;47228;46.762;23.598;2022-10-16T10:02:50;34.90;;;23.80;;
61358;SDS011;47228;46.762;23.598;2022-10-16T10:05:26;33.00;;;23.60;;
61358;SDS011;47228;46.762;23.598;2022-10-16T10:08:00;33.50;;;23.90;;
61358;SDS011;47228;46.762;23.598;2022-10-16T10:10:34;32.70;;;23.70;;
61358;SDS011;47228;46.762;23.598;2022-10-16T10:13:21;28.60;;;21.70;;
61358;SDS011;47228;46.762;23.598;2022-10-16T10:15:51;33.20;;;25.10;;
61358;SDS011;47228;46.762;23.598;2022-10-16T10:18:21;28.80;;;22.00;;
61358;SDS011;47228;46.762;23.598;2022-10-16T10:21:00;31.00;;;24.00;;
61358;SDS011;47228;46.762;23.598;2022-10-16T10:23:31;32.20;;;24.20;;
61358;SDS011;47228;46.762;23.598;2022-10-16T10:34:32;33.80;;;24.00;;
61358;SDS011;47228;46.762;23.598;2022-10-16T10:37:20;32.50;;;23.00;;
61358;SDS011;47228;46.762;23.598;2022-10-16T10:40:04;32.60;;;23.20;;
61358;SDS011;47228;46.762;23.598;2022-10-16T10:53:32;29.70;;;21.70;;
61358;SDS011;47228;46.762;23.598;2022-10-16T11:01:08;28.80;;;23.80;;
61358;SDS011;47228;46.762;23.598;2022-10-16T11:03:46;27.10;;;21.20;;
61358;SDS011;47228;46.762;23.598;2022-10-16T11:06:39;29.00;;;20.20;;
61358;SDS011;47228;46.762;23.598;2022-10-16T11:09:21;28.40;;;20.80;;
61358;SDS011;47228;46.762;23.598;2022-10-16T11:11:58;32.30;;;21.80;;
61358;SDS011;47228;46.762;23.598;2022-10-16T11:14:35;26.60;;;21.50;;
61358;SDS011;47228;46.762;23.598;2022-10-16T11:17:12;28.00;;;20.60;;
61358;SDS011;47228;46.762;23.598;2022-10-16T11:22:30;23.90;;;18.90;;
61358;SDS011;47228;46.762;23.598;2022-10-16T11:28:10;21.90;;;16.30;;
61358;SDS011;47228;46.762;23.598;2022-10-16T11:30:49;22.10;;;17.50;;
61358;SDS011;47228;46.762;23.598;2022-10-16T11:33:26;21.50;;;17.00;;
61358;SDS011;47228;46.762;23.598;2022-10-16T11:36:03;22.50;;;16.50;;
61358;SDS011;47228;46.762;23.598;2022-10-16T11:38:46;21.90;;;16.00;;
61358;SDS011;47228;46.762;23.598;2022-10-16T11:44:33;21.40;;;15.70;;
61358;SDS011;47228;46.762;23.598;2022-10-16T11:47:09;20.20;;;13.40;;
61358;SDS011;47228;46.762;23.598;2022-10-16T11:50:06;16.40;;;13.00;;
61358;SDS011;47228;46.762;23.598;2022-10-16T11:55:42;16.10;;;12.10;;
61358;SDS011;47228;46.762;23.598;2022-10-16T12:08:51;13.90;;;10.00;;
61358;SDS011;47228;46.762;23.598;2022-10-16T12:16:36;14.30;;;8.90;;
61358;SDS011;47228;46.762;23.598;2022-10-16T12:19:13;12.70;;;8.60;;
61358;SDS011;47228;46.762;23.598;2022-10-16T12:21:43;14.50;;;9.80;;
61358;SDS011;47228;46.762;23.598;2022-10-16T12:27:17;14.70;;;9.10;;
61358;SDS011;47228;46.762;23.598;2022-10-16T12:30:03;12.70;;;9.30;;
61358;SDS011;47228;46.762;23.598;2022-10-16T12:32:34;13.60;;;8.40;;
61358;SDS011;47228;46.762;23.598;2022-10-16T12:35:24;10.40;;;7.40;;
61358;SDS011;47228;46.762;23.598;2022-10-16T12:38:03;13.30;;;7.40;;
61358;SDS011;47228;46.762;23.598;2022-10-16T12:40:34;11.80;;;7.80;;
61358;SDS011;47228;46.762;23.598;2022-10-16T12:43:11;13.10;;;8.10;;
61358;SDS011;47228;46.762;23.598;2022-10-16T12:48:37;11.50;;;7.60;;
61358;SDS011;47228;46.762;23.598;2022-10-16T13:19:34;11.20;;;7.20;;
61358;SDS011;47228;46.762;23.598;2022-10-16T13:25:27;13.00;;;7.40;;
61358;SDS011;47228;46.762;23.598;2022-10-16T13:28:17;10.80;;;7.00;;
61358;SDS011;47228;46.762;23.598;2022-10-16T13:30:53;10.40;;;7.30;;
61358;SDS011;47228;46.762;23.598;2022-10-16T13:33:32;10.80;;;7.20;;
61358;SDS011;47228;46.762;23.598;2022-10-16T13:36:03;9.60;;;6.90;;
61358;SDS011;47228;46.762;23.598;2022-10-16T13:38:33;10.80;;;7.30;;
61358;SDS011;47228;46.762;23.598;2022-10-16T13:41:11;12.00;;;8.10;;
61358;SDS011;47228;46.762;23.598;2022-10-16T13:43:51;11.60;;;6.80;;
61358;SDS011;47228;46.762;23.598;2022-10-16T13:46:23;14.50;;;7.00;;
61358;SDS011;47228;46.762;23.598;2022-10-16T13:48:59;13.50;;;6.70;;
61358;SDS011;47228;46.762;23.598;2022-10-16T13:51:31;9.80;;;6.30;;
61358;SDS011;47228;46.762;23.598;2022-10-16T13:54:00;9.00;;;5.90;;
61358;SDS011;47228;46.762;23.598;2022-10-16T13:56:29;9.10;;;6.50;;
61358;SDS011;47228;46.762;23.598;2022-10-16T13:59:00;8.90;;;5.90;;
61358;SDS011;47228;46.762;23.598;2022-10-16T14:04:06;10.60;;;6.00;;
61358;SDS011;47228;46.762;23.598;2022-10-16T14:06:39;7.70;;;5.30;;
61358;SDS011;47228;46.762;23.598;2022-10-16T14:11:54;9.40;;;6.10;;
61358;SDS011;47228;46.762;23.598;2022-10-16T14:14:32;7.90;;;5.80;;
61358;SDS011;47228;46.762;23.598;2022-10-16T14:17:12;10.70;;;5.80;;
61358;SDS011;47228;46.762;23.598;2022-10-16T14:19:45;10.20;;;5.70;;
61358;SDS011;47228;46.762;23.598;2022-10-16T14:25:13;10.30;;;6.60;;
61358;SDS011;47228;46.762;23.598;2022-10-16T14:36:01;8.20;;;5.50;;
61358;SDS011;47228;46.762;23.598;2022-10-16T14:38:31;10.30;;;6.10;;
61358;SDS011;47228;46.762;23.598;2022-10-16T14:41:00;8.80;;;6.20;;
61358;SDS011;47228;46.762;23.598;2022-10-16T14:43:31;10.80;;;6.50;;
61358;SDS011;47228;46.762;23.598;2022-10-16T14:46:02;11.50;;;6.30;;
61358;SDS011;47228;46.762;23.598;2022-10-16T14:48:34;14.80;;;6.40;;
61358;SDS011;47228;46.762;23.598;2022-10-16T14:51:02;9.10;;;5.90;;
61358;SDS011;47228;46.762;23.598;2022-10-16T14:53:30;10.80;;;6.40;;
61358;SDS011;47228;46.762;23.598;2022-10-16T14:55:58;8.90;;;6.20;;
61358;SDS011;47228;46.762;23.598;2022-10-16T14:58:33;9.70;;;6.30;;
61358;SDS011;47228;46.762;23.598;2022-10-16T15:01:02;9.70;;;6.40;;
61358;SDS011;47228;46.762;23.598;2022-10-16T15:03:30;10.90;;;6.40;;
61358;SDS011;47228;46.762;23.598;2022-10-16T15:05:57;10.20;;;7.10;;
61358;SDS011;47228;46.762;23.598;2022-10-16T15:08:25;9.90;;;6.80;;
61358;SDS011;47228;46.762;23.598;2022-10-16T15:10:53;12.50;;;6.60;;
61358;SDS011;47228;46.762;23.598;2022-10-16T15:13:21;16.60;;;8.30;;
61358;SDS011;47228;46.762;23.598;2022-10-16T15:15:49;16.00;;;10.30;;
61358;SDS011;47228;46.762;23.598;2022-10-16T15:18:16;18.30;;;10.30;;
61358;SDS011;47228;46.762;23.598;2022-10-16T15:20:48;13.90;;;8.90;;
61358;SDS011;47228;46.762;23.598;2022-10-16T15:23:18;17.20;;;9.30;;
61358;SDS011;47228;46.762;23.598;2022-10-16T15:25:49;15.20;;;9.00;;
61358;SDS011;47228;46.762;23.598;2022-10-16T15:28:21;15.10;;;9.20;;
61358;SDS011;47228;46.762;23.598;2022-10-16T15:30:54;14.70;;;8.70;;
61358;SDS011;47228;46.762;23.598;2022-10-16T15:33:25;14.70;;;8.80;;
61358;SDS011;47228;46.762;23.598;2022-10-16T15:36:06;18.00;;;9.20;;
61358;SDS011;47228;46.762;23.598;2022-10-16T15:38:35;17.50;;;9.30;;
61358;SDS011;47228;46.762;23.598;2022-10-16T15:41:03;15.10;;;9.60;;
61358;SDS011;47228;46.762;23.598;2022-10-16T15:43:31;13.40;;;8.80;;
61358;SDS011;47228;46.762;23.598;2022-10-16T15:46:00;16.30;;;8.70;;
61358;SDS011;47228;46.762;23.598;2022-10-16T15:48:31;16.00;;;9.40;;
61358;SDS011;47228;46.762;23.598;2022-10-16T15:51:00;17.90;;;10.70;;
61358;SDS011;47228;46.762;23.598;2022-10-16T15:53:32;14.20;;;9.80;;
61358;SDS011;47228;46.762;23.598;2022-10-16T15:56:02;17.90;;;9.80;;
61358;SDS011;47228;46.762;23.598;2022-10-16T15:58:30;17.40;;;10.10;;
61358;SDS011;47228;46.762;23.598;2022-10-16T16:00:59;16.00;;;9.90;;
61358;SDS011;47228;46.762;23.598;2022-10-16T16:03:28;16.00;;;10.10;;
61358;SDS011;47228;46.762;23.598;2022-10-16T16:05:57;18.70;;;10.40;;
61358;SDS011;47228;46.762;23.598;2022-10-16T16:08:25;19.10;;;9.90;;
61358;SDS011;47228;46.762;23.598;2022-10-16T16:10:57;21.70;;;11.10;;
61358;SDS011;47228;46.762;23.598;2022-10-16T16:13:26;22.90;;;11.70;;
61358;SDS011;47228;46.762;23.598;2022-10-16T16:15:54;16.50;;;10.80;;
61358;SDS011;47228;46.762;23.598;2022-10-16T16:18:23;16.90;;;10.40;;
61358;SDS011;47228;46.762;23.598;2022-10-16T16:20:51;18.30;;;10.60;;
61358;SDS011;47228;46.762;23.598;2022-10-16T16:23:19;20.80;;;10.40;;
61358;SDS011;47228;46.762;23.598;2022-10-16T16:28:54;16.50;;;10.30;;
61358;SDS011;47228;46.762;23.598;2022-10-16T16:31:27;17.60;;;11.00;;
61358;SDS011;47228;46.762;23.598;2022-10-16T16:33:56;17.60;;;11.40;;
61358;SDS011;47228;46.762;23.598;2022-10-16T16:36:25;19.30;;;10.50;;
61358;SDS011;47228;46.762;23.598;2022-10-16T16:38:53;16.00;;;10.30;;
61358;SDS011;47228;46.762;23.598;2022-10-16T16:41:22;20.60;;;11.30;;
61358;SDS011;47228;46.762;23.598;2022-10-16T16:43:53;20.70;;;12.00;;
61358;SDS011;47228;46.762;23.598;2022-10-16T16:46:22;20.40;;;11.90;;
61358;SDS011;47228;46.762;23.598;2022-10-16T16:48:50;16.80;;;10.90;;
61358;SDS011;47228;46.762;23.598;2022-10-16T16:51:20;16.60;;;10.90;;
61358;SDS011;47228;46.762;23.598;2022-10-16T16:53:50;18.30;;;10.70;;
61358;SDS011;47228;46.762;23.598;2022-10-16T16:56:20;18.20;;;10.50;;
61358;SDS011;47228;46.762;23.598;2022-10-16T16:58:50;16.80;;;11.00;;
61358;SDS011;47228;46.762;23.598;2022-10-16T17:01:19;19.00;;;11.00;;